Time;durP1;ratioP1;P1;durP2;ratioP2;P2;SDS_P1;SDS_P2;PMS_P1;PMS_P2;Temp;Humidity;BMP_temperature;BMP_pressure;BME280_temperature;BME280_humidity;BME280_pressure;Samples;Min_cycle;Max_cycle;Signal;HPM_P1;HPM_P2
2023/09/15 00:01:02;;;;;;;7.15;4.60;;;;;;;;;;5014045;28;20026;-76
2023/09/15 00:03:28;;;;;;;7.05;4.60;;;;;;;;;;5013951;28;20075;-76
2023/09/15 00:05:54;;;;;;;7.25;4.18;;;;;;;;;;4996157;28;20025;-77
2023/09/15 00:08:21;;;;;;;8.40;4.95;;;;;;;;;;5013671;28;20026;-76
2023/09/15 00:10:48;;;;;;;10.85;4.90;;;;;;;;;;5013760;28;20037;-76
2023/09/15 00:13:23;;;;;;;9.82;4.70;;;;;;;;;;5013956;28;20101;-77
2023/09/15 00:15:51;;;;;;;9.90;4.60;;;;;;;;;;5013591;28;20713;-76
2023/09/15 00:18:20;;;;;;;7.13;4.60;;;;;;;;;;5013743;28;20033;-76
2023/09/15 00:20:46;;;;;;;10.90;5.15;;;;;;;;;;5013563;28;20025;-77
2023/09/15 00:23:12;;;;;;;11.82;4.93;;;;;;;;;;5013531;28;20026;-76
2023/09/15 00:25:39;;;;;;;7.38;5.22;;;;;;;;;;5013531;28;20026;-76
2023/09/15 00:28:09;;;;;;;10.60;4.70;;;;;;;;;;4997179;28;20022;-76
2023/09/15 00:30:37;;;;;;;11.00;5.22;;;;;;;;;;5017699;28;20026;-76
2023/09/15 00:33:04;;;;;;;7.13;4.97;;;;;;;;;;5017736;28;20488;-76
2023/09/15 00:35:30;;;;;;;11.20;5.45;;;;;;;;;;5017506;28;20026;-76
2023/09/15 00:37:56;;;;;;;7.57;4.82;;;;;;;;;;4999807;28;20030;-76
2023/09/15 00:40:22;;;;;;;7.97;4.13;;;;;;;;;;5017371;28;20076;-77
2023/09/15 00:42:49;;;;;;;12.30;5.07;;;;;;;;;;5017443;28;20025;-76
2023/09/15 00:45:18;;;;;;;8.82;4.88;;;;;;;;;;5017329;28;20060;-76
2023/09/15 00:47:46;;;;;;;7.43;4.57;;;;;;;;;;5017716;28;20110;-77
2023/09/15 00:50:16;;;;;;;9.35;5.20;;;;;;;;;;5017195;28;20120;-76
2023/09/15 00:52:49;;;;;;;7.35;4.78;;;;;;;;;;5032327;28;20030;-76
2023/09/15 00:58:22;;;;;;;9.68;5.20;;;;;;;;;;5017421;28;20465;-76
2023/09/15 01:00:48;;;;;;;10.38;5.07;;;;;;;;;;5017079;28;20033;-76
2023/09/15 01:03:15;;;;;;;10.07;5.32;;;;;;;;;;5032144;28;20033;-76
2023/09/15 01:05:42;;;;;;;8.07;4.80;;;;;;;;;;5032089;28;20022;-76
2023/09/15 01:08:08;;;;;;;8.00;4.68;;;;;;;;;;5016917;28;20053;-76
2023/09/15 01:10:34;;;;;;;8.25;4.45;;;;;;;;;;5017027;28;20683;-76
2023/09/15 01:13:00;;;;;;;10.88;5.38;;;;;;;;;;5031902;28;20099;-77
2023/09/15 01:15:46;;;;;;;9.60;5.20;;;;;;;;;;5016323;28;20129;-77
2023/09/15 01:18:31;;;;;;;7.63;5.18;;;;;;;;;;5017270;28;20706;-76
2023/09/15 01:21:16;;;;;;;7.93;4.88;;;;;;;;;;5017295;28;20034;-76
2023/09/15 01:24:01;;;;;;;7.30;5.18;;;;;;;;;;5017010;28;20033;-77
2023/09/15 01:26:43;;;;;;;10.60;5.40;;;;;;;;;;5017173;28;20029;-77
2023/09/15 01:29:09;;;;;;;7.80;5.10;;;;;;;;;;5017234;28;20097;-76
2023/09/15 01:31:35;;;;;;;9.63;4.90;;;;;;;;;;5032140;28;20046;-76
2023/09/15 01:34:01;;;;;;;8.10;5.07;;;;;;;;;;5017011;28;20033;-76
2023/09/15 01:36:27;;;;;;;12.55;5.82;;;;;;;;;;5017084;28;20086;-77
2023/09/15 01:38:54;;;;;;;13.57;5.47;;;;;;;;;;5016487;28;20058;-77
2023/09/15 01:44:30;;;;;;;7.35;4.85;;;;;;;;;;5017394;28;20140;-77
2023/09/15 01:46:56;;;;;;;12.00;5.20;;;;;;;;;;5031732;28;20030;-76
2023/09/15 01:49:22;;;;;;;10.25;5.45;;;;;;;;;;5014186;28;20388;-76
2023/09/15 01:51:49;;;;;;;7.75;5.13;;;;;;;;;;5014045;28;20493;-76
2023/09/15 01:54:15;;;;;;;12.13;5.40;;;;;;;;;;5015184;28;20033;-76
2023/09/15 01:56:41;;;;;;;10.65;4.90;;;;;;;;;;5016137;28;20052;-76
2023/09/15 01:59:07;;;;;;;8.73;5.45;;;;;;;;;;5031362;28;20029;-76
2023/09/15 02:01:33;;;;;;;11.40;5.45;;;;;;;;;;5015901;28;20030;-76
2023/09/15 02:03:59;;;;;;;7.68;5.07;;;;;;;;;;5015915;28;20026;-76
2023/09/15 02:06:25;;;;;;;8.27;5.15;;;;;;;;;;5015813;28;20411;-76
2023/09/15 02:08:51;;;;;;;13.57;5.90;;;;;;;;;;5015890;28;20025;-76
2023/09/15 02:11:18;;;;;;;6.15;5.30;;;;;;;;;;5015596;28;20041;-76
2023/09/15 02:13:44;;;;;;;10.65;5.15;;;;;;;;;;5015806;28;20050;-76
2023/09/15 02:16:13;;;;;;;8.35;5.63;;;;;;;;;;5016051;28;20026;-76
2023/09/15 02:18:40;;;;;;;9.37;5.23;;;;;;;;;;5015737;28;20022;-76
2023/09/15 02:21:09;;;;;;;8.93;4.97;;;;;;;;;;5030850;28;20267;-76
2023/09/15 02:23:41;;;;;;;9.75;5.03;;;;;;;;;;5015641;28;20022;-76
2023/09/15 02:26:09;;;;;;;11.68;6.10;;;;;;;;;;5030666;28;20472;-76
2023/09/15 02:28:35;;;;;;;8.52;5.43;;;;;;;;;;5030785;28;20460;-76
2023/09/15 02:31:04;;;;;;;9.95;5.90;;;;;;;;;;5015206;28;20034;-76
2023/09/15 02:33:31;;;;;;;10.18;5.88;;;;;;;;;;5015205;28;20022;-76
2023/09/15 02:35:57;;;;;;;11.15;5.40;;;;;;;;;;5015243;28;20096;-76
2023/09/15 02:38:23;;;;;;;11.85;5.88;;;;;;;;;;5015347;28;20423;-76
2023/09/15 02:40:49;;;;;;;9.50;5.82;;;;;;;;;;5015188;28;20105;-76
2023/09/15 02:43:15;;;;;;;10.93;6.43;;;;;;;;;;5015158;28;20105;-76
2023/09/15 02:45:41;;;;;;;9.15;5.88;;;;;;;;;;5015095;28;20048;-76
2023/09/15 02:48:07;;;;;;;9.68;6.32;;;;;;;;;;5014975;28;20034;-76
2023/09/15 02:50:33;;;;;;;10.90;6.35;;;;;;;;;;5014065;28;20470;-76
2023/09/15 02:53:00;;;;;;;7.05;5.32;;;;;;;;;;5015015;28;20026;-76
2023/09/15 02:55:26;;;;;;;9.48;5.85;;;;;;;;;;5014857;28;20030;-76
2023/09/15 02:57:52;;;;;;;9.63;6.30;;;;;;;;;;5014662;28;20453;-76
2023/09/15 03:00:19;;;;;;;9.10;6.18;;;;;;;;;;5015045;28;20022;-76
2023/09/15 03:02:45;;;;;;;10.35;5.95;;;;;;;;;;5015084;28;20022;-76
2023/09/15 03:05:12;;;;;;;8.38;5.80;;;;;;;;;;5014736;28;20026;-76
2023/09/15 03:07:39;;;;;;;9.95;5.82;;;;;;;;;;5014784;28;20108;-76
2023/09/15 03:10:08;;;;;;;7.15;5.90;;;;;;;;;;5014911;28;20034;-76
2023/09/15 03:12:35;;;;;;;10.25;6.20;;;;;;;;;;5014640;28;20045;-76
2023/09/15 03:15:07;;;;;;;10.25;6.57;;;;;;;;;;5029281;28;20732;-76
2023/09/15 03:17:33;;;;;;;8.43;6.50;;;;;;;;;;5014578;28;20029;-76
2023/09/15 03:19:59;;;;;;;14.45;6.55;;;;;;;;;;5029780;28;20038;-76
2023/09/15 03:22:27;;;;;;;10.57;6.35;;;;;;;;;;5014483;28;20104;-76
2023/09/15 03:24:53;;;;;;;10.02;6.70;;;;;;;;;;5014687;28;20548;-76
2023/09/15 03:27:20;;;;;;;12.63;6.93;;;;;;;;;;5014425;28;20029;-76
2023/09/15 03:29:46;;;;;;;12.52;6.68;;;;;;;;;;5014675;28;20025;-76
2023/09/15 03:32:12;;;;;;;10.73;5.97;;;;;;;;;;5014803;28;20068;-76
2023/09/15 03:34:38;;;;;;;12.88;6.78;;;;;;;;;;5014540;28;20030;-76
2023/09/15 03:37:05;;;;;;;13.05;7.32;;;;;;;;;;5029764;28;20084;-76
2023/09/15 03:39:31;;;;;;;12.18;7.15;;;;;;;;;;5014589;28;20030;-76
2023/09/15 03:41:57;;;;;;;10.52;7.28;;;;;;;;;;5029282;28;20084;-76
2023/09/15 03:44:23;;;;;;;12.00;7.03;;;;;;;;;;5014266;28;20696;-76
2023/09/15 03:46:55;;;;;;;9.80;6.50;;;;;;;;;;5014569;28;20065;-76
2023/09/15 03:49:21;;;;;;;9.38;6.45;;;;;;;;;;5029381;28;20507;-76
2023/09/15 03:51:47;;;;;;;11.15;6.50;;;;;;;;;;5013892;28;20030;-76
2023/09/15 03:54:13;;;;;;;10.60;6.88;;;;;;;;;;5013806;28;20372;-76
2023/09/15 03:56:39;;;;;;;13.40;7.30;;;;;;;;;;5014271;28;20348;-76
2023/09/15 03:59:06;;;;;;;12.50;6.82;;;;;;;;;;5029304;28;20053;-76
2023/09/15 04:01:32;;;;;;;8.85;6.50;;;;;;;;;;5029033;28;20030;-76
2023/09/15 04:03:59;;;;;;;13.38;7.07;;;;;;;;;;5013940;28;20380;-76
2023/09/15 04:06:25;;;;;;;12.52;6.90;;;;;;;;;;5014111;28;20026;-76
2023/09/15 04:08:51;;;;;;;12.63;7.13;;;;;;;;;;5029323;28;20026;-76
2023/09/15 04:11:17;;;;;;;13.15;7.28;;;;;;;;;;5013917;28;20065;-76
2023/09/15 04:13:43;;;;;;;11.85;6.80;;;;;;;;;;5028734;28;20033;-76
2023/09/15 04:16:09;;;;;;;11.63;7.20;;;;;;;;;;5013722;28;20037;-76
2023/09/15 04:18:35;;;;;;;13.88;7.18;;;;;;;;;;5013782;28;20088;-76
2023/09/15 04:21:02;;;;;;;10.93;6.93;;;;;;;;;;5013779;28;20096;-76
2023/09/15 04:23:28;;;;;;;11.52;6.95;;;;;;;;;;5028917;28;20080;-76
2023/09/15 04:25:54;;;;;;;14.57;7.53;;;;;;;;;;5013622;28;20022;-76
2023/09/15 04:28:21;;;;;;;9.70;6.82;;;;;;;;;;5028741;28;20114;-76
2023/09/15 04:30:49;;;;;;;12.93;7.30;;;;;;;;;;5013539;28;20041;-75
2023/09/15 04:33:15;;;;;;;10.07;7.53;;;;;;;;;;5013692;28;20468;-76
2023/09/15 04:35:41;;;;;;;12.18;7.50;;;;;;;;;;5015437;28;20034;-76
2023/09/15 04:38:07;;;;;;;12.85;7.45;;;;;;;;;;5013589;28;20037;-76
2023/09/15 04:40:34;;;;;;;11.07;7.40;;;;;;;;;;4996002;28;20111;-76
2023/09/15 04:43:00;;;;;;;10.35;6.75;;;;;;;;;;5013413;28;20030;-76
2023/09/15 04:45:26;;;;;;;9.40;6.70;;;;;;;;;;5013613;28;20033;-76
2023/09/15 04:47:52;;;;;;;9.93;7.10;;;;;;;;;;4995750;28;20026;-76
2023/09/15 04:50:18;;;;;;;9.48;6.88;;;;;;;;;;5013152;28;20037;-76
2023/09/15 04:52:44;;;;;;;10.85;6.95;;;;;;;;;;4996300;28;20022;-76
2023/09/15 04:55:11;;;;;;;10.02;6.72;;;;;;;;;;5013559;28;20037;-76
2023/09/15 04:57:36;;;;;;;10.27;6.90;;;;;;;;;;5013382;28;20034;-76
2023/09/15 05:00:04;;;;;;;12.68;7.00;;;;;;;;;;5013178;28;20100;-76
2023/09/15 05:02:31;;;;;;;12.40;7.00;;;;;;;;;;4995559;28;20113;-76
2023/09/15 05:04:57;;;;;;;10.73;6.50;;;;;;;;;;5013116;28;20103;-76
2023/09/15 05:07:24;;;;;;;11.73;6.63;;;;;;;;;;4995638;28;20511;-76
2023/09/15 05:09:50;;;;;;;11.68;6.85;;;;;;;;;;5013283;28;20030;-76
2023/09/15 05:15:20;;;;;;;11.07;6.88;;;;;;;;;;5014807;28;20107;-76
2023/09/15 05:17:46;;;;;;;8.68;7.18;;;;;;;;;;4999057;28;20022;-76
2023/09/15 05:20:12;;;;;;;13.02;7.53;;;;;;;;;;5016703;28;20099;-76
2023/09/15 05:22:38;;;;;;;10.00;7.32;;;;;;;;;;4999509;28;20116;-76
2023/09/15 05:25:04;;;;;;;10.35;6.68;;;;;;;;;;5016769;28;20101;-76
2023/09/15 05:27:31;;;;;;;11.50;7.00;;;;;;;;;;5016389;28;20029;-76
2023/09/15 05:29:58;;;;;;;9.90;7.20;;;;;;;;;;5016238;28;20052;-76
2023/09/15 05:32:24;;;;;;;9.73;6.68;;;;;;;;;;5016664;28;20076;-76
2023/09/15 05:34:50;;;;;;;8.82;7.07;;;;;;;;;;4998965;28;20030;-76
2023/09/15 05:37:16;;;;;;;11.73;6.78;;;;;;;;;;5016333;28;20022;-76
2023/09/15 05:39:42;;;;;;;10.05;6.85;;;;;;;;;;5016550;28;20058;-75
2023/09/15 05:42:08;;;;;;;8.63;6.60;;;;;;;;;;5016618;28;20037;-75
2023/09/15 05:44:34;;;;;;;8.80;6.72;;;;;;;;;;5015733;28;20029;-75
2023/09/15 05:47:00;;;;;;;12.38;7.40;;;;;;;;;;5016108;28;20053;-75
2023/09/15 05:49:27;;;;;;;10.30;6.80;;;;;;;;;;5015835;28;20041;-76
2023/09/15 05:51:53;;;;;;;10.85;7.07;;;;;;;;;;5015859;28;20040;-75
2023/09/15 05:54:19;;;;;;;13.88;7.20;;;;;;;;;;5015653;28;20022;-75
2023/09/15 05:56:45;;;;;;;10.80;7.10;;;;;;;;;;4997901;28;20365;-76
2023/09/15 05:59:11;;;;;;;9.57;6.70;;;;;;;;;;5015865;28;20041;-75
2023/09/15 06:01:39;;;;;;;10.82;6.35;;;;;;;;;;5015686;28;20026;-75
2023/09/15 06:04:07;;;;;;;12.32;6.28;;;;;;;;;;5015824;28;20022;-75
2023/09/15 06:06:34;;;;;;;12.65;7.15;;;;;;;;;;5016086;28;20022;-75
2023/09/15 06:09:00;;;;;;;15.80;6.93;;;;;;;;;;5016018;28;20025;-75
2023/09/15 06:11:26;;;;;;;9.30;6.75;;;;;;;;;;5015739;28;20041;-75
2023/09/15 06:13:52;;;;;;;12.77;7.60;;;;;;;;;;5015393;28;20105;-75
2023/09/15 06:16:18;;;;;;;13.25;6.65;;;;;;;;;;5015488;28;20022;-76
2023/09/15 06:18:45;;;;;;;10.45;7.03;;;;;;;;;;5015819;28;20169;-75
2023/09/15 06:21:11;;;;;;;8.68;6.75;;;;;;;;;;5016119;28;20026;-75
2023/09/15 06:23:37;;;;;;;10.55;6.63;;;;;;;;;;5015647;28;20806;-75
2023/09/15 06:26:03;;;;;;;10.75;6.90;;;;;;;;;;5013411;28;20021;-75
2023/09/15 06:28:29;;;;;;;8.50;6.75;;;;;;;;;;5015435;28;20029;-75
2023/09/15 06:30:55;;;;;;;9.15;6.43;;;;;;;;;;5015894;28;20030;-75
2023/09/15 06:33:21;;;;;;;11.10;6.22;;;;;;;;;;5015593;28;20342;-75
2023/09/15 06:35:47;;;;;;;10.77;6.45;;;;;;;;;;5014593;28;20034;-75
2023/09/15 06:38:14;;;;;;;10.15;6.90;;;;;;;;;;5015154;28;20041;-76
2023/09/15 06:40:51;;;;;;;10.57;7.03;;;;;;;;;;5015497;28;20025;-76
2023/09/15 06:43:17;;;;;;;10.45;5.95;;;;;;;;;;5015270;28;20466;-76
2023/09/15 06:45:43;;;;;;;10.88;5.90;;;;;;;;;;5014942;28;20057;-76
2023/09/15 06:48:09;;;;;;;12.57;6.60;;;;;;;;;;5015166;28;20018;-76
2023/09/15 06:50:35;;;;;;;10.73;6.45;;;;;;;;;;5014804;28;20052;-76
2023/09/15 06:53:01;;;;;;;11.13;6.55;;;;;;;;;;5014699;28;20072;-76
2023/09/15 06:55:27;;;;;;;14.15;6.15;;;;;;;;;;5015069;28;20029;-76
2023/09/15 06:57:53;;;;;;;9.98;6.25;;;;;;;;;;5014676;28;20022;-76
2023/09/15 07:00:19;;;;;;;8.65;5.72;;;;;;;;;;5014779;28;20476;-76
2023/09/15 07:02:45;;;;;;;10.02;5.10;;;;;;;;;;5015126;28;20029;-76
2023/09/15 07:05:11;;;;;;;6.55;5.07;;;;;;;;;;5014978;28;20029;-76
2023/09/15 07:07:37;;;;;;;7.63;4.72;;;;;;;;;;5014091;28;20030;-76
2023/09/15 07:10:04;;;;;;;7.15;4.72;;;;;;;;;;5012864;28;20483;-76
2023/09/15 07:12:30;;;;;;;6.90;4.35;;;;;;;;;;5014167;28;20354;-76
2023/09/15 07:15:00;;;;;;;7.72;4.50;;;;;;;;;;5014387;28;20054;-76
2023/09/15 07:17:26;;;;;;;7.50;4.22;;;;;;;;;;4997546;28;20064;-76
2023/09/15 07:19:52;;;;;;;6.28;4.00;;;;;;;;;;5015767;28;20076;-76
2023/09/15 07:22:21;;;;;;;8.60;4.10;;;;;;;;;;5015751;28;20405;-76
2023/09/15 07:24:47;;;;;;;9.80;4.07;;;;;;;;;;4997872;28;20030;-76
2023/09/15 07:27:13;;;;;;;6.57;3.75;;;;;;;;;;5015745;28;20034;-76
2023/09/15 07:29:39;;;;;;;7.47;4.03;;;;;;;;;;4999355;28;20022;-77
2023/09/15 07:32:06;;;;;;;4.47;3.63;;;;;;;;;;5016160;28;20036;-77
2023/09/15 07:34:32;;;;;;;7.68;4.05;;;;;;;;;;5016130;28;20022;-77
2023/09/15 07:37:00;;;;;;;6.45;3.58;;;;;;;;;;5015890;28;20017;-77
2023/09/15 07:39:26;;;;;;;6.70;3.50;;;;;;;;;;5017374;28;20135;-77
2023/09/15 07:41:52;;;;;;;6.22;3.90;;;;;;;;;;5016821;28;20505;-77
2023/09/15 07:44:18;;;;;;;8.32;3.92;;;;;;;;;;5016805;28;20105;-77
2023/09/15 07:46:44;;;;;;;4.43;3.47;;;;;;;;;;5016341;28;20049;-77
2023/09/15 07:49:10;;;;;;;8.30;3.80;;;;;;;;;;5016454;28;20030;-77
2023/09/15 07:51:36;;;;;;;6.63;3.40;;;;;;;;;;5016335;28;20033;-77
2023/09/15 07:54:02;;;;;;;6.40;3.58;;;;;;;;;;5015594;28;20028;-77
2023/09/15 07:56:28;;;;;;;7.72;3.50;;;;;;;;;;5015869;28;20045;-77
2023/09/15 07:58:54;;;;;;;9.35;3.97;;;;;;;;;;5016515;28;20033;-77
2023/09/15 08:01:20;;;;;;;5.38;3.53;;;;;;;;;;5016278;28;20021;-77
2023/09/15 08:03:46;;;;;;;5.18;3.67;;;;;;;;;;5016470;28;20037;-77
2023/09/15 08:06:17;;;;;;;9.05;3.55;;;;;;;;;;5017377;28;20030;-78
2023/09/15 08:08:43;;;;;;;7.35;4.00;;;;;;;;;;5020590;28;20030;-78
2023/09/15 08:11:09;;;;;;;6.53;3.70;;;;;;;;;;5021204;28;20468;-79
2023/09/15 08:13:35;;;;;;;6.28;3.70;;;;;;;;;;5020854;28;20022;-77
2023/09/15 08:16:02;;;;;;;5.22;3.10;;;;;;;;;;5013453;28;20040;-77
2023/09/15 08:18:28;;;;;;;7.53;4.05;;;;;;;;;;5013132;28;20400;-77
2023/09/15 08:20:54;;;;;;;6.32;3.65;;;;;;;;;;5013385;28;20037;-77
2023/09/15 08:23:20;;;;;;;6.78;3.75;;;;;;;;;;5013470;28;20030;-77
2023/09/15 08:25:46;;;;;;;4.93;3.35;;;;;;;;;;4995737;28;20026;-77
2023/09/15 08:28:12;;;;;;;6.30;3.42;;;;;;;;;;5013242;28;20022;-77
2023/09/15 08:30:38;;;;;;;5.97;3.20;;;;;;;;;;5013562;28;20099;-77
2023/09/15 08:33:05;;;;;;;6.07;3.28;;;;;;;;;;4995248;28;20026;-77
2023/09/15 08:35:31;;;;;;;5.30;3.63;;;;;;;;;;5013152;28;20085;-76
2023/09/15 08:37:57;;;;;;;7.10;3.28;;;;;;;;;;5012792;28;20026;-77
2023/09/15 08:40:23;;;;;;;6.43;3.22;;;;;;;;;;5012767;28;20105;-77
2023/09/15 08:42:49;;;;;;;5.78;3.22;;;;;;;;;;5012724;28;20050;-77
2023/09/15 08:45:15;;;;;;;7.28;3.10;;;;;;;;;;5012524;28;20077;-77
2023/09/15 08:47:47;;;;;;;6.63;3.38;;;;;;;;;;5012454;28;20026;-77
2023/09/15 08:50:15;;;;;;;5.72;3.58;;;;;;;;;;5012648;28;20112;-77
2023/09/15 08:52:43;;;;;;;5.97;3.33;;;;;;;;;;5016752;28;20024;-77
2023/09/15 08:55:10;;;;;;;4.88;3.25;;;;;;;;;;4999040;28;20122;-77
2023/09/15 08:57:36;;;;;;;4.28;2.78;;;;;;;;;;5016557;28;20025;-77
2023/09/15 09:00:03;;;;;;;6.85;3.10;;;;;;;;;;5016612;28;20634;-77
2023/09/15 09:02:29;;;;;;;4.95;2.70;;;;;;;;;;5016565;28;20025;-77
2023/09/15 09:04:55;;;;;;;3.78;2.97;;;;;;;;;;5016574;28;20026;-77
2023/09/15 09:07:22;;;;;;;6.60;3.00;;;;;;;;;;5016303;28;20380;-77
2023/09/15 09:09:48;;;;;;;5.20;3.05;;;;;;;;;;5016022;28;20434;-77
2023/09/15 09:12:14;;;;;;;4.05;3.13;;;;;;;;;;5016301;28;20014;-77
2023/09/15 09:14:41;;;;;;;4.57;3.40;;;;;;;;;;5015561;28;20516;-77
2023/09/15 09:17:11;;;;;;;4.47;3.28;;;;;;;;;;5016045;28;20025;-77
2023/09/15 09:19:37;;;;;;;4.82;3.13;;;;;;;;;;5015997;28;20105;-77
2023/09/15 09:22:04;;;;;;;4.18;3.78;;;;;;;;;;5015895;28;20098;-77
2023/09/15 09:24:30;;;;;;;4.13;3.28;;;;;;;;;;5019073;28;20029;-77
2023/09/15 09:26:56;;;;;;;7.72;3.40;;;;;;;;;;5019872;28;20082;-78
2023/09/15 09:29:28;;;;;;;6.45;3.30;;;;;;;;;;5019127;28;20018;-77
2023/09/15 09:31:55;;;;;;;5.22;3.38;;;;;;;;;;5019174;28;20037;-78
2023/09/15 09:34:21;;;;;;;5.90;3.13;;;;;;;;;;5018632;28;20547;-78
2023/09/15 09:36:52;;;;;;;6.40;2.97;;;;;;;;;;5003454;28;20014;-78
2023/09/15 09:39:18;;;;;;;3.83;2.78;;;;;;;;;;5021006;28;20064;-78
2023/09/15 09:41:44;;;;;;;4.80;3.05;;;;;;;;;;5020962;28;20033;-78
2023/09/15 09:44:14;;;;;;;5.63;3.63;;;;;;;;;;5019865;28;20014;-77
2023/09/15 09:46:40;;;;;;;8.63;3.97;;;;;;;;;;5020035;28;20345;-78
2023/09/15 09:49:06;;;;;;;6.57;3.70;;;;;;;;;;5019273;28;20026;-78
2023/09/15 09:51:35;;;;;;;5.47;3.63;;;;;;;;;;5018481;28;20043;-78
2023/09/15 09:54:01;;;;;;;6.05;3.83;;;;;;;;;;5015702;28;20025;-77
2023/09/15 09:56:30;;;;;;;7.60;4.53;;;;;;;;;;5017752;28;20037;-78
2023/09/15 09:59:01;;;;;;;7.82;5.00;;;;;;;;;;5021016;28;20026;-79
2023/09/15 10:01:29;;;;;;;7.68;4.70;;;;;;;;;;5001894;28;20044;-79
2023/09/15 10:03:55;;;;;;;6.77;4.40;;;;;;;;;;5021341;28;20086;-78
2023/09/15 10:06:22;;;;;;;6.47;4.20;;;;;;;;;;5020488;28;20255;-79
2023/09/15 10:08:48;;;;;;;5.80;4.65;;;;;;;;;;5020529;28;20133;-79
2023/09/15 10:11:14;;;;;;;8.00;4.78;;;;;;;;;;5020048;28;20384;-79
2023/09/15 10:13:40;;;;;;;6.43;4.80;;;;;;;;;;5020092;28;20121;-78
2023/09/15 10:16:06;;;;;;;7.63;4.90;;;;;;;;;;5000615;28;20034;-79
2023/09/15 10:18:36;;;;;;;6.35;4.90;;;;;;;;;;4989560;28;20023;-79
2023/09/15 10:21:03;;;;;;;8.80;5.57;;;;;;;;;;4982453;28;20023;-79
2023/09/15 10:23:31;;;;;;;8.18;5.05;;;;;;;;;;4996562;28;20453;-79
2023/09/15 10:25:57;;;;;;;8.15;5.68;;;;;;;;;;5001193;28;20504;-79
2023/09/15 10:28:23;;;;;;;7.57;4.95;;;;;;;;;;5000586;28;20028;-79
2023/09/15 10:30:54;;;;;;;8.60;5.75;;;;;;;;;;4999993;28;20049;-79
2023/09/15 10:33:26;;;;;;;8.55;5.75;;;;;;;;;;4999425;28;20117;-79
2023/09/15 10:35:52;;;;;;;8.32;5.40;;;;;;;;;;5000376;28;20030;-79
2023/09/15 10:38:28;;;;;;;6.35;5.30;;;;;;;;;;5000400;28;20160;-79
2023/09/15 10:40:54;;;;;;;8.00;5.47;;;;;;;;;;5000394;28;20566;-79
2023/09/15 10:43:20;;;;;;;11.25;5.60;;;;;;;;;;5000991;28;20034;-78
2023/09/15 10:46:13;;;;;;;7.05;5.05;;;;;;;;;;5000576;28;20033;-79
2023/09/15 10:48:44;;;;;;;6.78;5.18;;;;;;;;;;4995055;28;20074;-79
2023/09/15 10:51:10;;;;;;;6.93;5.03;;;;;;;;;;5000709;28;20049;-79
2023/09/15 10:53:45;;;;;;;8.98;6.50;;;;;;;;;;5000439;28;20022;-79
2023/09/15 10:56:12;;;;;;;7.40;5.40;;;;;;;;;;4999763;28;20104;-79
2023/09/15 10:58:38;;;;;;;5.97;5.22;;;;;;;;;;4999818;28;20033;-79
2023/09/15 11:01:05;;;;;;;8.88;6.85;;;;;;;;;;5001167;28;20034;-79
2023/09/15 11:03:32;;;;;;;8.25;6.20;;;;;;;;;;5000864;28;20054;-79
2023/09/15 11:05:59;;;;;;;7.35;6.15;;;;;;;;;;5001427;28;20030;-79
2023/09/15 11:08:26;;;;;;;9.90;6.82;;;;;;;;;;4986220;28;20027;-79
2023/09/15 11:10:59;;;;;;;8.25;6.72;;;;;;;;;;4981419;28;20034;-79
2023/09/15 11:13:25;;;;;;;8.05;6.40;;;;;;;;;;4982923;28;20496;-79
2023/09/15 11:15:51;;;;;;;8.32;5.80;;;;;;;;;;4999793;28;20050;-79
2023/09/15 11:18:18;;;;;;;8.43;6.75;;;;;;;;;;4986059;28;20027;-79
2023/09/15 11:20:44;;;;;;;7.88;6.78;;;;;;;;;;5002552;28;20042;-79
2023/09/15 11:23:10;;;;;;;10.75;7.47;;;;;;;;;;4985518;28;20030;-80
2023/09/15 11:25:36;;;;;;;8.73;6.82;;;;;;;;;;5001557;28;20030;-80
2023/09/15 11:28:03;;;;;;;9.85;7.63;;;;;;;;;;5001304;28;20023;-79
2023/09/15 11:30:30;;;;;;;10.70;7.10;;;;;;;;;;5001000;28;20057;-79
2023/09/15 11:32:58;;;;;;;10.13;6.75;;;;;;;;;;5000231;28;20022;-79
2023/09/15 11:35:25;;;;;;;8.88;6.95;;;;;;;;;;4982743;28;20465;-79
2023/09/15 11:37:52;;;;;;;7.50;6.72;;;;;;;;;;5000911;28;20026;-80
2023/09/15 11:40:24;;;;;;;10.65;7.78;;;;;;;;;;5001278;28;20037;-79
2023/09/15 11:42:54;;;;;;;10.00;7.40;;;;;;;;;;5001022;28;20033;-79
2023/09/15 11:45:25;;;;;;;8.07;6.43;;;;;;;;;;5009087;28;20127;-80
2023/09/15 11:47:51;;;;;;;7.82;6.30;;;;;;;;;;5020624;28;20033;-80
2023/09/15 11:50:17;;;;;;;8.85;7.13;;;;;;;;;;5010489;28;20034;-80
2023/09/15 11:52:44;;;;;;;8.43;6.47;;;;;;;;;;5026909;28;20084;-80
2023/09/15 11:55:20;;;;;;;10.15;7.00;;;;;;;;;;5028133;28;20041;-80
2023/09/15 11:57:47;;;;;;;8.60;6.82;;;;;;;;;;5009309;28;20033;-80
2023/09/15 12:00:16;;;;;;;9.35;7.22;;;;;;;;;;5028645;28;20030;-80
2023/09/15 12:02:42;;;;;;;;;;;;;;;;;;5020553;28;20060;-80
2023/09/15 12:05:16;;;;;;;10.50;7.40;;;;;;;;;;5027352;28;19909;-79
2023/09/15 12:07:46;;;;;;;11.02;7.45;;;;;;;;;;5009714;28;20033;-80
2023/09/15 12:10:13;;;;;;;8.82;7.65;;;;;;;;;;5007817;28;20034;-80
2023/09/15 12:12:39;;;;;;;8.70;6.57;;;;;;;;;;5008100;28;20031;-80
2023/09/15 12:15:06;;;;;;;9.27;7.03;;;;;;;;;;5005690;28;20061;-80
2023/09/15 12:17:33;;;;;;;12.20;6.97;;;;;;;;;;5025604;28;20030;-80
2023/09/15 12:19:59;;;;;;;8.85;7.40;;;;;;;;;;4998294;28;20084;-77
2023/09/15 12:22:41;;;;;;;8.10;6.50;;;;;;;;;;5013098;28;20022;-77
2023/09/15 12:25:10;;;;;;;7.82;6.57;;;;;;;;;;5017619;28;20436;-77
2023/09/15 12:27:37;;;;;;;10.85;6.43;;;;;;;;;;5017607;28;20022;-78
2023/09/15 12:30:15;;;;;;;8.27;5.93;;;;;;;;;;5022008;28;20037;-79
2023/09/15 12:32:41;;;;;;;8.55;6.22;;;;;;;;;;5024790;28;20025;-79
2023/09/15 12:35:11;;;;;;;8.57;5.40;;;;;;;;;;5024598;28;20030;-80
2023/09/15 12:37:40;;;;;;;7.20;5.15;;;;;;;;;;5025023;28;20116;-79
2023/09/15 12:40:06;;;;;;;7.23;5.33;;;;;;;;;;5024980;28;20120;-80
2023/09/15 12:42:33;;;;;;;8.32;6.05;;;;;;;;;;5006435;28;20025;-79
2023/09/15 12:44:59;;;;;;;9.10;5.93;;;;;;;;;;5024549;28;20057;-79
2023/09/15 12:47:25;;;;;;;6.88;5.28;;;;;;;;;;5023680;28;20097;-79
2023/09/15 12:49:51;;;;;;;8.27;4.60;;;;;;;;;;5023075;28;20094;-79
2023/09/15 12:52:17;;;;;;;6.95;4.32;;;;;;;;;;5019778;28;20030;-79
2023/09/15 12:54:43;;;;;;;6.38;4.57;;;;;;;;;;5019898;28;20598;-80
2023/09/15 12:57:09;;;;;;;7.18;4.45;;;;;;;;;;5021390;28;20499;-79
2023/09/15 12:59:36;;;;;;;8.00;4.10;;;;;;;;;;5021032;28;20457;-79
2023/09/15 13:02:02;;;;;;;7.53;3.78;;;;;;;;;;5025208;28;20135;-79
2023/09/15 13:04:28;;;;;;;6.13;3.53;;;;;;;;;;5019427;28;20025;-79
2023/09/15 13:06:54;;;;;;;5.03;3.33;;;;;;;;;;5020811;28;20028;-80
2023/09/15 13:09:24;;;;;;;5.07;2.60;;;;;;;;;;5020590;28;20472;-79
2023/09/15 13:12:00;;;;;;;5.28;2.78;;;;;;;;;;5002860;28;20076;-79
2023/09/15 13:14:26;;;;;;;4.47;2.75;;;;;;;;;;5021198;28;20046;-79
2023/09/15 13:16:52;;;;;;;4.40;2.75;;;;;;;;;;5020180;28;20030;-79
2023/09/15 13:19:19;;;;;;;5.72;2.97;;;;;;;;;;5020790;28;20034;-79
2023/09/15 13:21:45;;;;;;;3.80;2.90;;;;;;;;;;5022357;28;20033;-79
2023/09/15 13:24:11;;;;;;;5.18;2.78;;;;;;;;;;5019767;28;20033;-79
2023/09/15 13:26:37;;;;;;;4.13;2.35;;;;;;;;;;5020830;28;20021;-79
2023/09/15 13:29:04;;;;;;;4.97;2.35;;;;;;;;;;5021177;28;20036;-79
2023/09/15 13:31:30;;;;;;;8.13;2.45;;;;;;;;;;5020350;28;20038;-79
2023/09/15 13:33:56;;;;;;;3.65;2.20;;;;;;;;;;5019552;28;20507;-79
2023/09/15 13:36:29;;;;;;;6.00;2.65;;;;;;;;;;5022970;28;20158;-82
2023/09/15 13:38:55;;;;;;;4.50;2.40;;;;;;;;;;5007406;28;20030;-82
2023/09/15 13:41:21;;;;;;;5.20;2.40;;;;;;;;;;5023742;28;20487;-82
2023/09/15 13:43:47;;;;;;;4.07;2.35;;;;;;;;;;5023448;28;20032;-82
2023/09/15 13:46:13;;;;;;;4.82;2.30;;;;;;;;;;5022340;28;20061;-80
2023/09/15 13:48:39;;;;;;;4.05;2.42;;;;;;;;;;5020624;28;20396;-80
2023/09/15 13:51:05;;;;;;;3.97;2.30;;;;;;;;;;5020424;28;20034;-80
2023/09/15 13:53:35;;;;;;;6.75;2.50;;;;;;;;;;5021285;28;20054;-79
2023/09/15 13:56:01;;;;;;;;;;;;;;;;;;5022557;28;20029;-79
2023/09/15 13:58:27;;;;;;;3.70;2.72;;;;;;;;;;5021101;28;19906;-79
2023/09/15 14:00:57;;;;;;;4.75;2.65;;;;;;;;;;5018860;28;20026;-79
2023/09/15 14:03:25;;;;;;;3.42;2.42;;;;;;;;;;5001314;28;20491;-79
2023/09/15 14:06:10;;;;;;;5.32;2.47;;;;;;;;;;4999565;28;20172;-79
2023/09/15 14:08:36;;;;;;;5.70;2.80;;;;;;;;;;5018573;28;20022;-79
2023/09/15 14:11:02;;;;;;;10.23;2.88;;;;;;;;;;5018119;28;20152;-80
2023/09/15 14:13:28;;;;;;;4.65;2.55;;;;;;;;;;5016771;28;20022;-81
2023/09/15 14:16:02;;;;;;;5.43;2.88;;;;;;;;;;5016501;28;20054;-81
2023/09/15 14:18:28;;;;;;;4.60;2.72;;;;;;;;;;5018608;28;20045;-79
2023/09/15 14:20:54;;;;;;;6.25;3.00;;;;;;;;;;5002083;28;20030;-80
2023/09/15 14:23:20;;;;;;;5.38;3.17;;;;;;;;;;5017467;28;20693;-79
2023/09/15 14:25:46;;;;;;;4.63;3.50;;;;;;;;;;5017352;28;20063;-79
2023/09/15 14:28:12;;;;;;;5.43;2.75;;;;;;;;;;5017203;28;20681;-79
2023/09/15 14:30:39;;;;;;;5.93;3.13;;;;;;;;;;5018571;28;20037;-79
2023/09/15 14:33:05;;;;;;;6.68;3.00;;;;;;;;;;5018747;28;20512;-79
2023/09/15 14:35:31;;;;;;;6.50;3.03;;;;;;;;;;5017804;28;20079;-79
2023/09/15 14:37:57;;;;;;;4.47;2.80;;;;;;;;;;5018078;28;20046;-79
2023/09/15 14:40:23;;;;;;;5.97;3.50;;;;;;;;;;5018301;28;20030;-79
2023/09/15 14:42:49;;;;;;;11.45;4.30;;;;;;;;;;5018353;28;20030;-79
2023/09/15 14:45:16;;;;;;;5.10;3.15;;;;;;;;;;5005271;28;20022;-79
2023/09/15 14:48:02;;;;;;;8.65;3.50;;;;;;;;;;5017244;28;20033;-78